sensor_id;sensor_type;location;lat;lon;timestamp;temperature;humidity
74540;SHT31;66042;51.090;-115.340;2023-12-04T00:02:15;-0.24;65.66
74540;SHT31;66042;51.090;-115.340;2023-12-04T00:04:42;-0.25;65.36
74540;SHT31;66042;51.090;-115.340;2023-12-04T00:07:09;-0.24;65.19
74540;SHT31;66042;51.090;-115.340;2023-12-04T00:09:36;-0.24;65.08
74540;SHT31;66042;51.090;-115.340;2023-12-04T00:12:03;-0.22;64.55
74540;SHT31;66042;51.090;-115.340;2023-12-04T00:14:30;-0.20;63.79
74540;SHT31;66042;51.090;-115.340;2023-12-04T00:16:57;-0.21;63.95
74540;SHT31;66042;51.090;-115.340;2023-12-04T00:19:25;-0.23;63.93
74540;SHT31;66042;51.090;-115.340;2023-12-04T00:21:52;-0.26;64.54
74540;SHT31;66042;51.090;-115.340;2023-12-04T00:24:19;-0.31;64.61
74540;SHT31;66042;51.090;-115.340;2023-12-04T00:26:46;-0.38;64.88
74540;SHT31;66042;51.090;-115.340;2023-12-04T00:29:14;-0.38;64.49
74540;SHT31;66042;51.090;-115.340;2023-12-04T00:31:41;-0.36;64.16
74540;SHT31;66042;51.090;-115.340;2023-12-04T00:34:07;-0.36;63.93
74540;SHT31;66042;51.090;-115.340;2023-12-04T00:36:35;-0.35;63.63
74540;SHT31;66042;51.090;-115.340;2023-12-04T00:39:02;-0.33;63.45
74540;SHT31;66042;51.090;-115.340;2023-12-04T00:41:29;-0.31;63.36
74540;SHT31;66042;51.090;-115.340;2023-12-04T00:43:57;-0.28;63.22
74540;SHT31;66042;51.090;-115.340;2023-12-04T00:46:24;-0.27;63.43
74540;SHT31;66042;51.090;-115.340;2023-12-04T00:48:51;-0.27;63.13
74540;SHT31;66042;51.090;-115.340;2023-12-04T00:51:18;-0.24;62.80
74540;SHT31;66042;51.090;-115.340;2023-12-04T00:53:45;-0.21;62.48
74540;SHT31;66042;51.090;-115.340;2023-12-04T00:56:12;-0.20;62.32
74540;SHT31;66042;51.090;-115.340;2023-12-04T00:58:39;-0.19;62.20
74540;SHT31;66042;51.090;-115.340;2023-12-04T01:01:06;-0.19;62.01
74540;SHT31;66042;51.090;-115.340;2023-12-04T01:03:33;-0.18;62.18
74540;SHT31;66042;51.090;-115.340;2023-12-04T01:06:00;-0.20;62.15
74540;SHT31;66042;51.090;-115.340;2023-12-04T01:08:27;-0.22;62.06
74540;SHT31;66042;51.090;-115.340;2023-12-04T01:10:54;-0.21;61.59
74540;SHT31;66042;51.090;-115.340;2023-12-04T01:13:21;-0.19;61.48
74540;SHT31;66042;51.090;-115.340;2023-12-04T01:15:48;-0.17;61.63
74540;SHT31;66042;51.090;-115.340;2023-12-04T01:18:16;-0.19;61.65
74540;SHT31;66042;51.090;-115.340;2023-12-04T01:20:43;-0.19;61.86
74540;SHT31;66042;51.090;-115.340;2023-12-04T01:23:11;-0.22;61.71
74540;SHT31;66042;51.090;-115.340;2023-12-04T01:25:38;-0.22;61.38
74540;SHT31;66042;51.090;-115.340;2023-12-04T01:28:05;-0.21;60.38
74540;SHT31;66042;51.090;-115.340;2023-12-04T01:30:32;-0.19;59.92
74540;SHT31;66042;51.090;-115.340;2023-12-04T01:32:59;-0.16;58.57
74540;SHT31;66042;51.090;-115.340;2023-12-04T01:35:26;-0.10;57.66
74540;SHT31;66042;51.090;-115.340;2023-12-04T01:37:53;-0.04;57.52
74540;SHT31;66042;51.090;-115.340;2023-12-04T01:40:20;-0.01;57.42
74540;SHT31;66042;51.090;-115.340;2023-12-04T01:42:47;0.03;56.81
74540;SHT31;66042;51.090;-115.340;2023-12-04T01:45:14;0.06;56.91
74540;SHT31;66042;51.090;-115.340;2023-12-04T01:47:41;0.09;56.72
74540;SHT31;66042;51.090;-115.340;2023-12-04T01:50:09;0.19;54.97
74540;SHT31;66042;51.090;-115.340;2023-12-04T01:52:36;0.31;54.62
74540;SHT31;66042;51.090;-115.340;2023-12-04T01:55:04;0.45;53.83
74540;SHT31;66042;51.090;-115.340;2023-12-04T01:57:34;0.51;53.76
74540;SHT31;66042;51.090;-115.340;2023-12-04T02:00:02;0.53;53.95
74540;SHT31;66042;51.090;-115.340;2023-12-04T02:02:31;0.55;53.06
74540;SHT31;66042;51.090;-115.340;2023-12-04T02:04:58;0.60;53.41
74540;SHT31;66042;51.090;-115.340;2023-12-04T02:07:26;0.62;53.14
74540;SHT31;66042;51.090;-115.340;2023-12-04T02:09:53;0.65;53.17
74540;SHT31;66042;51.090;-115.340;2023-12-04T02:12:21;0.67;53.01
74540;SHT31;66042;51.090;-115.340;2023-12-04T02:14:48;0.68;52.36
74540;SHT31;66042;51.090;-115.340;2023-12-04T02:17:15;0.71;52.22
74540;SHT31;66042;51.090;-115.340;2023-12-04T02:19:43;0.77;51.64
74540;SHT31;66042;51.090;-115.340;2023-12-04T02:22:10;0.81;51.17
74540;SHT31;66042;51.090;-115.340;2023-12-04T02:24:37;0.86;51.17
74540;SHT31;66042;51.090;-115.340;2023-12-04T02:27:09;0.84;51.58
74540;SHT31;66042;51.090;-115.340;2023-12-04T02:29:51;0.82;51.33
74540;SHT31;66042;51.090;-115.340;2023-12-04T02:32:24;0.86;50.89
74540;SHT31;66042;51.090;-115.340;2023-12-04T02:34:57;0.91;50.37
74540;SHT31;66042;51.090;-115.340;2023-12-04T02:37:30;0.99;49.79
74540;SHT31;66042;51.090;-115.340;2023-12-04T02:39:59;1.03;50.52
74540;SHT31;66042;51.090;-115.340;2023-12-04T02:42:28;1.01;50.57
74540;SHT31;66042;51.090;-115.340;2023-12-04T02:44:55;1.02;50.39
74540;SHT31;66042;51.090;-115.340;2023-12-04T02:47:22;1.09;49.41
74540;SHT31;66042;51.090;-115.340;2023-12-04T02:49:49;1.17;49.00
74540;SHT31;66042;51.090;-115.340;2023-12-04T02:52:16;1.22;49.48
74540;SHT31;66042;51.090;-115.340;2023-12-04T02:54:43;1.25;48.92
74540;SHT31;66042;51.090;-115.340;2023-12-04T02:57:10;1.25;49.44
74540;SHT31;66042;51.090;-115.340;2023-12-04T02:59:37;1.26;49.35
74540;SHT31;66042;51.090;-115.340;2023-12-04T03:02:04;1.25;49.97
74540;SHT31;66042;51.090;-115.340;2023-12-04T03:04:32;1.23;50.04
74540;SHT31;66042;51.090;-115.340;2023-12-04T03:07:00;1.22;49.82
74540;SHT31;66042;51.090;-115.340;2023-12-04T03:09:27;1.23;49.26
74540;SHT31;66042;51.090;-115.340;2023-12-04T03:11:55;1.25;49.79
74540;SHT31;66042;51.090;-115.340;2023-12-04T03:14:21;1.23;50.23
74540;SHT31;66042;51.090;-115.340;2023-12-04T03:16:49;1.20;50.13
74540;SHT31;66042;51.090;-115.340;2023-12-04T03:19:16;1.21;50.13
74540;SHT31;66042;51.090;-115.340;2023-12-04T03:21:43;1.20;50.22
74540;SHT31;66042;51.090;-115.340;2023-12-04T03:24:10;1.19;50.50
74540;SHT31;66042;51.090;-115.340;2023-12-04T03:26:37;1.17;50.80
74540;SHT31;66042;51.090;-115.340;2023-12-04T03:29:05;1.18;50.60
74540;SHT31;66042;51.090;-115.340;2023-12-04T03:31:32;1.20;50.69
74540;SHT31;66042;51.090;-115.340;2023-12-04T03:33:59;1.21;50.87
74540;SHT31;66042;51.090;-115.340;2023-12-04T03:36:26;1.21;50.99
74540;SHT31;66042;51.090;-115.340;2023-12-04T03:38:53;1.21;50.93
74540;SHT31;66042;51.090;-115.340;2023-12-04T03:41:19;1.21;51.33
74540;SHT31;66042;51.090;-115.340;2023-12-04T03:43:48;1.20;51.91
74540;SHT31;66042;51.090;-115.340;2023-12-04T03:46:15;1.17;52.50
74540;SHT31;66042;51.090;-115.340;2023-12-04T03:48:42;1.13;52.94
74540;SHT31;66042;51.090;-115.340;2023-12-04T03:51:09;1.08;53.13
74540;SHT31;66042;51.090;-115.340;2023-12-04T03:53:36;1.10;53.05
74540;SHT31;66042;51.090;-115.340;2023-12-04T03:56:03;1.07;53.46
74540;SHT31;66042;51.090;-115.340;2023-12-04T03:58:30;1.02;53.69
74540;SHT31;66042;51.090;-115.340;2023-12-04T04:00:58;1.00;54.04
74540;SHT31;66042;51.090;-115.340;2023-12-04T04:03:24;0.97;54.21
74540;SHT31;66042;51.090;-115.340;2023-12-04T04:05:51;0.94;54.29
74540;SHT31;66042;51.090;-115.340;2023-12-04T04:08:18;0.94;54.07
74540;SHT31;66042;51.090;-115.340;2023-12-04T04:10:45;0.94;54.32
74540;SHT31;66042;51.090;-115.340;2023-12-04T04:13:12;0.91;54.43
74540;SHT31;66042;51.090;-115.340;2023-12-04T04:15:38;0.89;54.59
74540;SHT31;66042;51.090;-115.340;2023-12-04T04:18:05;0.89;54.25
74540;SHT31;66042;51.090;-115.340;2023-12-04T04:20:31;0.89;54.50
74540;SHT31;66042;51.090;-115.340;2023-12-04T04:22:58;0.88;54.46
74540;SHT31;66042;51.090;-115.340;2023-12-04T04:25:25;0.90;53.82
74540;SHT31;66042;51.090;-115.340;2023-12-04T04:27:51;0.93;52.49
74540;SHT31;66042;51.090;-115.340;2023-12-04T04:30:18;1.00;52.17
74540;SHT31;66042;51.090;-115.340;2023-12-04T04:32:45;1.04;52.99
74540;SHT31;66042;51.090;-115.340;2023-12-04T04:35:12;1.06;53.00
74540;SHT31;66042;51.090;-115.340;2023-12-04T04:37:39;1.08;52.68
74540;SHT31;66042;51.090;-115.340;2023-12-04T04:40:06;1.09;52.42
74540;SHT31;66042;51.090;-115.340;2023-12-04T04:42:33;1.08;52.63
74540;SHT31;66042;51.090;-115.340;2023-12-04T04:45:00;1.06;53.04
74540;SHT31;66042;51.090;-115.340;2023-12-04T04:47:26;1.05;53.11
74540;SHT31;66042;51.090;-115.340;2023-12-04T04:49:53;1.04;53.03
74540;SHT31;66042;51.090;-115.340;2023-12-04T04:52:20;1.05;53.23
74540;SHT31;66042;51.090;-115.340;2023-12-04T04:54:47;1.04;53.37
74540;SHT31;66042;51.090;-115.340;2023-12-04T04:57:14;1.04;53.16
74540;SHT31;66042;51.090;-115.340;2023-12-04T04:59:40;1.06;52.98
74540;SHT31;66042;51.090;-115.340;2023-12-04T05:02:07;1.06;52.91
74540;SHT31;66042;51.090;-115.340;2023-12-04T05:04:34;1.07;52.79
74540;SHT31;66042;51.090;-115.340;2023-12-04T05:07:01;1.08;52.94
74540;SHT31;66042;51.090;-115.340;2023-12-04T05:09:28;1.06;52.90
74540;SHT31;66042;51.090;-115.340;2023-12-04T05:11:55;1.06;52.61
74540;SHT31;66042;51.090;-115.340;2023-12-04T05:14:22;1.07;52.39
74540;SHT31;66042;51.090;-115.340;2023-12-04T05:16:49;1.08;51.97
74540;SHT31;66042;51.090;-115.340;2023-12-04T05:19:16;1.09;52.28
74540;SHT31;66042;51.090;-115.340;2023-12-04T05:21:43;1.09;52.53
74540;SHT31;66042;51.090;-115.340;2023-12-04T05:24:10;1.07;52.54
74540;SHT31;66042;51.090;-115.340;2023-12-04T05:26:37;1.06;52.42
74540;SHT31;66042;51.090;-115.340;2023-12-04T05:29:03;1.05;52.63
74540;SHT31;66042;51.090;-115.340;2023-12-04T05:31:31;1.05;52.30
74540;SHT31;66042;51.090;-115.340;2023-12-04T05:33:58;1.06;52.00
74540;SHT31;66042;51.090;-115.340;2023-12-04T05:36:25;1.06;52.03
74540;SHT31;66042;51.090;-115.340;2023-12-04T05:38:53;1.08;51.78
74540;SHT31;66042;51.090;-115.340;2023-12-04T05:41:20;1.09;51.77
74540;SHT31;66042;51.090;-115.340;2023-12-04T05:43:47;1.09;51.37
74540;SHT31;66042;51.090;-115.340;2023-12-04T05:46:14;1.11;51.23
74540;SHT31;66042;51.090;-115.340;2023-12-04T05:48:40;1.13;51.55
74540;SHT31;66042;51.090;-115.340;2023-12-04T05:51:07;1.14;51.54
74540;SHT31;66042;51.090;-115.340;2023-12-04T05:53:36;1.18;51.35
74540;SHT31;66042;51.090;-115.340;2023-12-04T05:56:04;1.20;50.95
74540;SHT31;66042;51.090;-115.340;2023-12-04T05:58:34;1.21;51.03
74540;SHT31;66042;51.090;-115.340;2023-12-04T06:01:01;1.23;50.94
74540;SHT31;66042;51.090;-115.340;2023-12-04T06:03:28;1.23;50.86
74540;SHT31;66042;51.090;-115.340;2023-12-04T06:05:55;1.24;50.78
74540;SHT31;66042;51.090;-115.340;2023-12-04T06:08:22;1.25;50.80
74540;SHT31;66042;51.090;-115.340;2023-12-04T06:10:49;1.25;50.78
74540;SHT31;66042;51.090;-115.340;2023-12-04T06:13:16;1.24;50.88
74540;SHT31;66042;51.090;-115.340;2023-12-04T06:15:44;1.21;50.84
74540;SHT31;66042;51.090;-115.340;2023-12-04T06:18:11;1.19;50.53
74540;SHT31;66042;51.090;-115.340;2023-12-04T06:20:38;1.16;49.94
74540;SHT31;66042;51.090;-115.340;2023-12-04T06:23:05;1.16;49.42
74540;SHT31;66042;51.090;-115.340;2023-12-04T06:25:32;1.18;49.24
74540;SHT31;66042;51.090;-115.340;2023-12-04T06:28:00;1.20;49.30
74540;SHT31;66042;51.090;-115.340;2023-12-04T06:30:27;1.22;49.28
74540;SHT31;66042;51.090;-115.340;2023-12-04T06:32:55;1.23;49.20
74540;SHT31;66042;51.090;-115.340;2023-12-04T06:35:22;1.25;49.18
74540;SHT31;66042;51.090;-115.340;2023-12-04T06:37:49;1.26;49.12
74540;SHT31;66042;51.090;-115.340;2023-12-04T06:40:21;1.28;49.14
74540;SHT31;66042;51.090;-115.340;2023-12-04T06:42:48;1.26;49.51
74540;SHT31;66042;51.090;-115.340;2023-12-04T06:45:16;1.26;49.77
74540;SHT31;66042;51.090;-115.340;2023-12-04T06:47:43;1.26;49.84
74540;SHT31;66042;51.090;-115.340;2023-12-04T06:50:16;1.24;50.00
74540;SHT31;66042;51.090;-115.340;2023-12-04T06:52:43;1.21;50.17
74540;SHT31;66042;51.090;-115.340;2023-12-04T06:55:11;1.17;50.23
74540;SHT31;66042;51.090;-115.340;2023-12-04T06:57:39;1.18;50.00
74540;SHT31;66042;51.090;-115.340;2023-12-04T07:00:06;1.20;50.13
74540;SHT31;66042;51.090;-115.340;2023-12-04T07:02:34;1.20;50.36
74540;SHT31;66042;51.090;-115.340;2023-12-04T07:05:00;1.18;50.52
74540;SHT31;66042;51.090;-115.340;2023-12-04T07:07:28;1.18;50.61
74540;SHT31;66042;51.090;-115.340;2023-12-04T07:09:55;1.18;50.67
74540;SHT31;66042;51.090;-115.340;2023-12-04T07:12:22;1.14;50.70
74540;SHT31;66042;51.090;-115.340;2023-12-04T07:14:50;1.11;50.66
74540;SHT31;66042;51.090;-115.340;2023-12-04T07:17:17;1.09;50.61
74540;SHT31;66042;51.090;-115.340;2023-12-04T07:19:45;1.07;50.77
74540;SHT31;66042;51.090;-115.340;2023-12-04T07:22:12;1.07;50.77
74540;SHT31;66042;51.090;-115.340;2023-12-04T07:24:39;1.06;50.81
74540;SHT31;66042;51.090;-115.340;2023-12-04T07:27:07;1.05;50.93
74540;SHT31;66042;51.090;-115.340;2023-12-04T07:29:34;1.03;51.00
74540;SHT31;66042;51.090;-115.340;2023-12-04T07:32:03;1.01;51.08
74540;SHT31;66042;51.090;-115.340;2023-12-04T07:34:31;0.96;51.14
74540;SHT31;66042;51.090;-115.340;2023-12-04T07:36:59;0.97;51.36
74540;SHT31;66042;51.090;-115.340;2023-12-04T07:39:26;0.97;51.40
74540;SHT31;66042;51.090;-115.340;2023-12-04T07:41:53;0.96;51.48
74540;SHT31;66042;51.090;-115.340;2023-12-04T07:44:20;0.94;51.56
74540;SHT31;66042;51.090;-115.340;2023-12-04T07:46:47;0.92;51.60
74540;SHT31;66042;51.090;-115.340;2023-12-04T07:49:14;0.86;51.69
74540;SHT31;66042;51.090;-115.340;2023-12-04T07:51:41;0.87;51.70
74540;SHT31;66042;51.090;-115.340;2023-12-04T07:54:08;0.87;51.76
74540;SHT31;66042;51.090;-115.340;2023-12-04T07:56:36;0.87;51.78
74540;SHT31;66042;51.090;-115.340;2023-12-04T07:59:03;0.88;51.81
74540;SHT31;66042;51.090;-115.340;2023-12-04T08:01:30;0.88;51.89
74540;SHT31;66042;51.090;-115.340;2023-12-04T08:03:57;0.82;51.91
74540;SHT31;66042;51.090;-115.340;2023-12-04T08:06:24;0.79;52.00
74540;SHT31;66042;51.090;-115.340;2023-12-04T08:08:51;0.80;52.06
74540;SHT31;66042;51.090;-115.340;2023-12-04T08:11:18;0.80;52.13
74540;SHT31;66042;51.090;-115.340;2023-12-04T08:13:45;0.79;52.23
74540;SHT31;66042;51.090;-115.340;2023-12-04T08:16:13;0.76;52.30
74540;SHT31;66042;51.090;-115.340;2023-12-04T08:18:40;0.72;52.44
74540;SHT31;66042;51.090;-115.340;2023-12-04T08:21:09;0.67;52.53
74540;SHT31;66042;51.090;-115.340;2023-12-04T08:23:37;0.66;52.52
74540;SHT31;66042;51.090;-115.340;2023-12-04T08:26:04;0.64;52.50
74540;SHT31;66042;51.090;-115.340;2023-12-04T08:28:32;0.61;52.59
74540;SHT31;66042;51.090;-115.340;2023-12-04T08:31:01;0.58;52.70
74540;SHT31;66042;51.090;-115.340;2023-12-04T08:33:29;0.56;52.90
74540;SHT31;66042;51.090;-115.340;2023-12-04T08:35:56;0.54;52.99
74540;SHT31;66042;51.090;-115.340;2023-12-04T08:38:23;0.51;53.06
74540;SHT31;66042;51.090;-115.340;2023-12-04T08:40:50;0.50;53.12
74540;SHT31;66042;51.090;-115.340;2023-12-04T08:43:18;0.49;53.20
74540;SHT31;66042;51.090;-115.340;2023-12-04T08:45:45;0.44;53.20
74540;SHT31;66042;51.090;-115.340;2023-12-04T08:48:12;0.45;53.21
74540;SHT31;66042;51.090;-115.340;2023-12-04T08:50:40;0.44;53.22
74540;SHT31;66042;51.090;-115.340;2023-12-04T08:53:06;0.42;53.20
74540;SHT31;66042;51.090;-115.340;2023-12-04T08:55:33;0.39;53.29
74540;SHT31;66042;51.090;-115.340;2023-12-04T08:58:00;0.30;53.29
74540;SHT31;66042;51.090;-115.340;2023-12-04T09:00:27;0.24;53.48
74540;SHT31;66042;51.090;-115.340;2023-12-04T09:02:54;0.24;53.60
74540;SHT31;66042;51.090;-115.340;2023-12-04T09:05:22;0.20;53.70
74540;SHT31;66042;51.090;-115.340;2023-12-04T09:07:49;0.18;53.79
74540;SHT31;66042;51.090;-115.340;2023-12-04T09:10:16;0.20;53.81
74540;SHT31;66042;51.090;-115.340;2023-12-04T09:12:43;0.20;53.83
74540;SHT31;66042;51.090;-115.340;2023-12-04T09:15:11;0.20;53.80
74540;SHT31;66042;51.090;-115.340;2023-12-04T09:17:37;0.19;53.72
74540;SHT31;66042;51.090;-115.340;2023-12-04T09:20:05;0.14;53.70
74540;SHT31;66042;51.090;-115.340;2023-12-04T09:22:32;0.05;53.92
74540;SHT31;66042;51.090;-115.340;2023-12-04T09:25:04;-0.03;54.16
74540;SHT31;66042;51.090;-115.340;2023-12-04T09:27:32;-0.10;54.38
74540;SHT31;66042;51.090;-115.340;2023-12-04T09:29:59;-0.12;54.59
74540;SHT31;66042;51.090;-115.340;2023-12-04T09:32:27;-0.14;54.69
74540;SHT31;66042;51.090;-115.340;2023-12-04T09:34:54;-0.13;54.70
74540;SHT31;66042;51.090;-115.340;2023-12-04T09:37:21;-0.10;54.66
74540;SHT31;66042;51.090;-115.340;2023-12-04T09:39:48;-0.10;54.59
74540;SHT31;66042;51.090;-115.340;2023-12-04T09:42:15;-0.09;54.53
74540;SHT31;66042;51.090;-115.340;2023-12-04T09:44:47;-0.09;54.51
74540;SHT31;66042;51.090;-115.340;2023-12-04T09:47:20;-0.06;54.50
74540;SHT31;66042;51.090;-115.340;2023-12-04T09:49:49;-0.05;54.51
74540;SHT31;66042;51.090;-115.340;2023-12-04T09:52:19;-0.07;54.42
74540;SHT31;66042;51.090;-115.340;2023-12-04T09:54:46;-0.13;54.57
74540;SHT31;66042;51.090;-115.340;2023-12-04T09:57:15;-0.17;54.74
74540;SHT31;66042;51.090;-115.340;2023-12-04T09:59:43;-0.19;54.77
74540;SHT31;66042;51.090;-115.340;2023-12-04T10:02:11;-0.21;54.92
74540;SHT31;66042;51.090;-115.340;2023-12-04T10:04:38;-0.28;55.29
74540;SHT31;66042;51.090;-115.340;2023-12-04T10:07:07;-0.33;55.68
74540;SHT31;66042;51.090;-115.340;2023-12-04T10:09:35;-0.37;55.83
74540;SHT31;66042;51.090;-115.340;2023-12-04T10:12:02;-0.34;55.80
74540;SHT31;66042;51.090;-115.340;2023-12-04T10:14:32;-0.29;55.90
74540;SHT31;66042;51.090;-115.340;2023-12-04T10:16:59;-0.27;55.98
74540;SHT31;66042;51.090;-115.340;2023-12-04T10:19:41;-0.23;55.97
74540;SHT31;66042;51.090;-115.340;2023-12-04T10:22:08;-0.21;56.11
74540;SHT31;66042;51.090;-115.340;2023-12-04T10:24:36;-0.19;56.10
74540;SHT31;66042;51.090;-115.340;2023-12-04T10:27:05;-0.17;56.12
74540;SHT31;66042;51.090;-115.340;2023-12-04T10:29:44;-0.16;56.20
74540;SHT31;66042;51.090;-115.340;2023-12-04T10:32:18;-0.15;56.22
74540;SHT31;66042;51.090;-115.340;2023-12-04T10:34:49;-0.17;56.20
74540;SHT31;66042;51.090;-115.340;2023-12-04T10:37:16;-0.16;56.13
74540;SHT31;66042;51.090;-115.340;2023-12-04T10:39:51;-0.15;56.09
74540;SHT31;66042;51.090;-115.340;2023-12-04T10:42:25;-0.13;56.10
74540;SHT31;66042;51.090;-115.340;2023-12-04T10:44:58;-0.13;56.10
74540;SHT31;66042;51.090;-115.340;2023-12-04T10:47:26;-0.14;56.10
74540;SHT31;66042;51.090;-115.340;2023-12-04T10:49:58;-0.15;56.13
74540;SHT31;66042;51.090;-115.340;2023-12-04T10:52:28;-0.16;56.13
74540;SHT31;66042;51.090;-115.340;2023-12-04T10:54:57;-0.14;56.19
74540;SHT31;66042;51.090;-115.340;2023-12-04T10:57:27;-0.14;56.21
74540;SHT31;66042;51.090;-115.340;2023-12-04T11:00:04;-0.14;56.27
74540;SHT31;66042;51.090;-115.340;2023-12-04T11:02:34;-0.17;56.35
74540;SHT31;66042;51.090;-115.340;2023-12-04T11:05:13;-0.16;56.50
74540;SHT31;66042;51.090;-115.340;2023-12-04T11:07:58;-0.16;56.50
74540;SHT31;66042;51.090;-115.340;2023-12-04T11:10:29;-0.16;56.49
74540;SHT31;66042;51.090;-115.340;2023-12-04T11:13:00;-0.17;56.53
74540;SHT31;66042;51.090;-115.340;2023-12-04T11:15:39;-0.18;56.73
74540;SHT31;66042;51.090;-115.340;2023-12-04T11:18:07;-0.21;56.72
74540;SHT31;66042;51.090;-115.340;2023-12-04T11:20:54;-0.22;56.75
74540;SHT31;66042;51.090;-115.340;2023-12-04T11:23:29;-0.22;56.80
74540;SHT31;66042;51.090;-115.340;2023-12-04T11:25:58;-0.21;56.83
74540;SHT31;66042;51.090;-115.340;2023-12-04T11:28:29;-0.23;56.92
74540;SHT31;66042;51.090;-115.340;2023-12-04T11:30:59;-0.24;56.97
74540;SHT31;66042;51.090;-115.340;2023-12-04T11:33:27;-0.24;57.00
74540;SHT31;66042;51.090;-115.340;2023-12-04T11:36:05;-0.25;56.97
74540;SHT31;66042;51.090;-115.340;2023-12-04T11:38:33;-0.26;57.00
74540;SHT31;66042;51.090;-115.340;2023-12-04T11:41:23;-0.26;56.99
74540;SHT31;66042;51.090;-115.340;2023-12-04T11:43:51;-0.24;56.93
74540;SHT31;66042;51.090;-115.340;2023-12-04T11:46:24;-0.24;56.90
74540;SHT31;66042;51.090;-115.340;2023-12-04T11:49:35;-0.23;56.93
74540;SHT31;66042;51.090;-115.340;2023-12-04T11:51:53;-0.21;56.79
74540;SHT31;66042;51.090;-115.340;2023-12-04T11:54:23;-0.20;56.92
74540;SHT31;66042;51.090;-115.340;2023-12-04T11:56:56;-0.21;56.99
74540;SHT31;66042;51.090;-115.340;2023-12-04T11:59:47;-0.21;56.81
74540;SHT31;66042;51.090;-115.340;2023-12-04T12:02:14;-0.19;56.70
74540;SHT31;66042;51.090;-115.340;2023-12-04T12:04:42;-0.16;56.62
74540;SHT31;66042;51.090;-115.340;2023-12-04T12:07:11;-0.18;56.50
74540;SHT31;66042;51.090;-115.340;2023-12-04T12:09:38;-0.16;56.36
74540;SHT31;66042;51.090;-115.340;2023-12-04T12:12:05;-0.13;55.53
74540;SHT31;66042;51.090;-115.340;2023-12-04T12:14:33;-0.06;55.23
74540;SHT31;66042;51.090;-115.340;2023-12-04T12:17:00;-0.02;55.38
74540;SHT31;66042;51.090;-115.340;2023-12-04T12:19:27;-0.00;55.67
74540;SHT31;66042;51.090;-115.340;2023-12-04T12:21:54;0.00;55.73
74540;SHT31;66042;51.090;-115.340;2023-12-04T12:24:21;0.01;55.78
74540;SHT31;66042;51.090;-115.340;2023-12-04T12:26:51;0.03;55.81
74540;SHT31;66042;51.090;-115.340;2023-12-04T12:29:20;0.04;55.80
74540;SHT31;66042;51.090;-115.340;2023-12-04T12:31:47;0.08;55.81
74540;SHT31;66042;51.090;-115.340;2023-12-04T12:34:17;0.07;55.81
74540;SHT31;66042;51.090;-115.340;2023-12-04T12:36:43;0.06;55.90
74540;SHT31;66042;51.090;-115.340;2023-12-04T12:39:11;0.08;55.88
74540;SHT31;66042;51.090;-115.340;2023-12-04T12:41:38;0.10;55.89
74540;SHT31;66042;51.090;-115.340;2023-12-04T12:44:05;0.13;55.97
74540;SHT31;66042;51.090;-115.340;2023-12-04T12:46:33;0.13;55.85
74540;SHT31;66042;51.090;-115.340;2023-12-04T12:49:00;0.17;55.72
74540;SHT31;66042;51.090;-115.340;2023-12-04T12:51:27;0.18;55.74
74540;SHT31;66042;51.090;-115.340;2023-12-04T12:53:56;0.22;55.78
74540;SHT31;66042;51.090;-115.340;2023-12-04T12:56:24;0.23;56.02
74540;SHT31;66042;51.090;-115.340;2023-12-04T12:58:54;0.23;56.00
74540;SHT31;66042;51.090;-115.340;2023-12-04T13:01:23;0.23;55.83
74540;SHT31;66042;51.090;-115.340;2023-12-04T13:03:52;0.25;55.97
74540;SHT31;66042;51.090;-115.340;2023-12-04T13:06:22;0.24;56.03
74540;SHT31;66042;51.090;-115.340;2023-12-04T13:08:49;0.26;56.00
74540;SHT31;66042;51.090;-115.340;2023-12-04T13:11:16;0.28;56.01
74540;SHT31;66042;51.090;-115.340;2023-12-04T13:13:44;0.29;56.00
74540;SHT31;66042;51.090;-115.340;2023-12-04T13:16:11;0.31;56.00
74540;SHT31;66042;51.090;-115.340;2023-12-04T13:18:38;0.32;56.12
74540;SHT31;66042;51.090;-115.340;2023-12-04T13:21:05;0.29;56.16
74540;SHT31;66042;51.090;-115.340;2023-12-04T13:23:36;0.29;56.11
74540;SHT31;66042;51.090;-115.340;2023-12-04T13:26:03;0.29;56.13
74540;SHT31;66042;51.090;-115.340;2023-12-04T13:28:30;0.29;56.09
74540;SHT31;66042;51.090;-115.340;2023-12-04T13:30:57;0.31;56.05
74540;SHT31;66042;51.090;-115.340;2023-12-04T13:33:23;0.32;56.02
74540;SHT31;66042;51.090;-115.340;2023-12-04T13:35:51;0.33;56.06
74540;SHT31;66042;51.090;-115.340;2023-12-04T13:38:18;0.34;56.05
74540;SHT31;66042;51.090;-115.340;2023-12-04T13:40:45;0.33;56.08
74540;SHT31;66042;51.090;-115.340;2023-12-04T13:43:26;0.35;56.01
74540;SHT31;66042;51.090;-115.340;2023-12-04T13:46:11;0.34;55.99
74540;SHT31;66042;51.090;-115.340;2023-12-04T13:48:38;0.35;56.07
74540;SHT31;66042;51.090;-115.340;2023-12-04T13:51:08;0.31;56.18
74540;SHT31;66042;51.090;-115.340;2023-12-04T13:53:37;0.24;56.38
74540;SHT31;66042;51.090;-115.340;2023-12-04T13:56:15;0.24;56.39
74540;SHT31;66042;51.090;-115.340;2023-12-04T13:58:49;0.22;56.48
74540;SHT31;66042;51.090;-115.340;2023-12-04T14:01:25;0.20;56.50
74540;SHT31;66042;51.090;-115.340;2023-12-04T14:03:55;0.16;56.49
74540;SHT31;66042;51.090;-115.340;2023-12-04T14:06:29;0.14;56.58
74540;SHT31;66042;51.090;-115.340;2023-12-04T14:08:58;0.12;56.50
74540;SHT31;66042;51.090;-115.340;2023-12-04T14:11:25;0.09;56.59
74540;SHT31;66042;51.090;-115.340;2023-12-04T14:13:52;0.08;56.60
74540;SHT31;66042;51.090;-115.340;2023-12-04T14:16:19;0.08;56.70
74540;SHT31;66042;51.090;-115.340;2023-12-04T14:18:46;0.07;56.70
74540;SHT31;66042;51.090;-115.340;2023-12-04T14:21:13;0.07;56.73
74540;SHT31;66042;51.090;-115.340;2023-12-04T14:23:40;0.07;56.78
74540;SHT31;66042;51.090;-115.340;2023-12-04T14:26:07;0.06;56.88
74540;SHT31;66042;51.090;-115.340;2023-12-04T14:28:34;0.06;56.80
74540;SHT31;66042;51.090;-115.340;2023-12-04T14:31:01;0.09;56.73
74540;SHT31;66042;51.090;-115.340;2023-12-04T14:33:30;0.13;56.70
74540;SHT31;66042;51.090;-115.340;2023-12-04T14:35:57;0.16;56.60
74540;SHT31;66042;51.090;-115.340;2023-12-04T14:38:24;0.17;56.55
74540;SHT31;66042;51.090;-115.340;2023-12-04T14:40:51;0.19;56.48
74540;SHT31;66042;51.090;-115.340;2023-12-04T14:43:18;0.18;56.48
74540;SHT31;66042;51.090;-115.340;2023-12-04T14:45:45;0.19;56.49
74540;SHT31;66042;51.090;-115.340;2023-12-04T14:48:13;0.20;56.40
74540;SHT31;66042;51.090;-115.340;2023-12-04T14:50:40;0.22;56.44
74540;SHT31;66042;51.090;-115.340;2023-12-04T14:53:08;0.21;56.54
74540;SHT31;66042;51.090;-115.340;2023-12-04T14:55:42;0.23;56.54
74540;SHT31;66042;51.090;-115.340;2023-12-04T14:58:29;0.25;56.57
74540;SHT31;66042;51.090;-115.340;2023-12-04T15:01:12;0.24;56.50
74540;SHT31;66042;51.090;-115.340;2023-12-04T15:03:58;0.25;56.60
74540;SHT31;66042;51.090;-115.340;2023-12-04T15:06:44;0.25;56.76